sensor_id;sensor_type;location;lat;lon;timestamp;temperature;humidity
37204;DHT22;23098;48.054;10.636;2023-11-19T00:00:28;7.40;99.90
37204;DHT22;23098;48.054;10.636;2023-11-19T00:02:53;7.50;99.90
37204;DHT22;23098;48.054;10.636;2023-11-19T00:05:19;7.60;99.90
37204;DHT22;23098;48.054;10.636;2023-11-19T00:07:45;7.50;99.90
37204;DHT22;23098;48.054;10.636;2023-11-19T00:10:11;7.60;99.90
37204;DHT22;23098;48.054;10.636;2023-11-19T00:12:39;7.60;99.90
37204;DHT22;23098;48.054;10.636;2023-11-19T00:15:05;7.60;99.90
37204;DHT22;23098;48.054;10.636;2023-11-19T00:17:31;7.70;99.90
37204;DHT22;23098;48.054;10.636;2023-11-19T00:19:57;7.70;99.90
37204;DHT22;23098;48.054;10.636;2023-11-19T00:22:22;7.70;99.90
37204;DHT22;23098;48.054;10.636;2023-11-19T00:24:48;7.80;99.90
37204;DHT22;23098;48.054;10.636;2023-11-19T00:27:14;7.80;99.90
37204;DHT22;23098;48.054;10.636;2023-11-19T00:29:40;7.80;99.90
37204;DHT22;23098;48.054;10.636;2023-11-19T00:32:05;7.80;99.90
37204;DHT22;23098;48.054;10.636;2023-11-19T00:34:32;7.80;99.90
37204;DHT22;23098;48.054;10.636;2023-11-19T00:36:58;7.90;99.90
37204;DHT22;23098;48.054;10.636;2023-11-19T00:39:23;7.90;99.90
37204;DHT22;23098;48.054;10.636;2023-11-19T00:41:49;7.90;99.90
37204;DHT22;23098;48.054;10.636;2023-11-19T00:44:15;8.00;99.90
37204;DHT22;23098;48.054;10.636;2023-11-19T00:46:40;8.00;99.90
37204;DHT22;23098;48.054;10.636;2023-11-19T00:49:06;8.00;99.90
37204;DHT22;23098;48.054;10.636;2023-11-19T00:51:31;7.90;99.90
37204;DHT22;23098;48.054;10.636;2023-11-19T00:53:58;8.00;99.90
37204;DHT22;23098;48.054;10.636;2023-11-19T00:56:24;7.90;99.90
37204;DHT22;23098;48.054;10.636;2023-11-19T00:58:50;7.90;99.90
37204;DHT22;23098;48.054;10.636;2023-11-19T01:01:15;7.90;99.90
37204;DHT22;23098;48.054;10.636;2023-11-19T01:03:41;7.90;99.90
37204;DHT22;23098;48.054;10.636;2023-11-19T01:06:06;8.00;99.90
37204;DHT22;23098;48.054;10.636;2023-11-19T01:08:33;8.00;99.90
37204;DHT22;23098;48.054;10.636;2023-11-19T01:11:01;8.00;99.90
37204;DHT22;23098;48.054;10.636;2023-11-19T01:13:27;8.00;99.90
37204;DHT22;23098;48.054;10.636;2023-11-19T01:15:53;7.90;99.90
37204;DHT22;23098;48.054;10.636;2023-11-19T01:18:20;7.90;99.90
37204;DHT22;23098;48.054;10.636;2023-11-19T01:20:46;8.00;99.90
37204;DHT22;23098;48.054;10.636;2023-11-19T01:23:11;7.90;99.90
37204;DHT22;23098;48.054;10.636;2023-11-19T01:25:37;8.10;99.90
37204;DHT22;23098;48.054;10.636;2023-11-19T01:28:03;8.00;99.90
37204;DHT22;23098;48.054;10.636;2023-11-19T01:30:30;8.00;99.90
37204;DHT22;23098;48.054;10.636;2023-11-19T01:32:56;8.00;99.90
37204;DHT22;23098;48.054;10.636;2023-11-19T01:35:21;8.10;99.90
37204;DHT22;23098;48.054;10.636;2023-11-19T01:37:48;8.00;99.90
37204;DHT22;23098;48.054;10.636;2023-11-19T01:40:13;8.00;99.90
37204;DHT22;23098;48.054;10.636;2023-11-19T01:42:40;8.00;99.90
37204;DHT22;23098;48.054;10.636;2023-11-19T01:45:06;8.00;99.90
37204;DHT22;23098;48.054;10.636;2023-11-19T01:47:34;8.10;99.90
37204;DHT22;23098;48.054;10.636;2023-11-19T01:50:01;8.00;99.90
37204;DHT22;23098;48.054;10.636;2023-11-19T01:52:27;8.00;99.90
37204;DHT22;23098;48.054;10.636;2023-11-19T01:54:53;8.00;99.90
37204;DHT22;23098;48.054;10.636;2023-11-19T01:57:21;8.10;99.90
37204;DHT22;23098;48.054;10.636;2023-11-19T01:59:49;8.10;99.90
37204;DHT22;23098;48.054;10.636;2023-11-19T02:02:16;8.10;99.90
37204;DHT22;23098;48.054;10.636;2023-11-19T02:04:49;8.10;99.90
37204;DHT22;23098;48.054;10.636;2023-11-19T02:07:16;8.10;99.90
37204;DHT22;23098;48.054;10.636;2023-11-19T02:09:43;8.10;99.90
37204;DHT22;23098;48.054;10.636;2023-11-19T02:12:09;8.10;99.90
37204;DHT22;23098;48.054;10.636;2023-11-19T02:14:37;8.20;99.90
37204;DHT22;23098;48.054;10.636;2023-11-19T02:17:02;8.20;99.90
37204;DHT22;23098;48.054;10.636;2023-11-19T02:19:29;8.20;99.90
37204;DHT22;23098;48.054;10.636;2023-11-19T02:21:54;8.30;99.90
37204;DHT22;23098;48.054;10.636;2023-11-19T02:24:22;8.30;99.90
37204;DHT22;23098;48.054;10.636;2023-11-19T02:26:59;8.40;99.90
37204;DHT22;23098;48.054;10.636;2023-11-19T02:29:27;8.40;99.90
37204;DHT22;23098;48.054;10.636;2023-11-19T02:31:52;8.40;99.90
37204;DHT22;23098;48.054;10.636;2023-11-19T02:34:21;8.40;99.90
37204;DHT22;23098;48.054;10.636;2023-11-19T02:36:48;8.40;99.90
37204;DHT22;23098;48.054;10.636;2023-11-19T02:39:13;8.40;99.90
37204;DHT22;23098;48.054;10.636;2023-11-19T02:41:39;8.50;99.90
37204;DHT22;23098;48.054;10.636;2023-11-19T02:44:06;8.50;99.90
37204;DHT22;23098;48.054;10.636;2023-11-19T02:46:32;8.50;99.90
37204;DHT22;23098;48.054;10.636;2023-11-19T02:48:57;8.50;99.90
37204;DHT22;23098;48.054;10.636;2023-11-19T02:51:23;8.60;99.90
37204;DHT22;23098;48.054;10.636;2023-11-19T02:53:49;8.60;99.90
37204;DHT22;23098;48.054;10.636;2023-11-19T02:56:14;8.60;99.90
37204;DHT22;23098;48.054;10.636;2023-11-19T02:58:50;8.70;99.90
37204;DHT22;23098;48.054;10.636;2023-11-19T03:01:24;8.70;99.90
37204;DHT22;23098;48.054;10.636;2023-11-19T03:03:57;8.80;99.90
37204;DHT22;23098;48.054;10.636;2023-11-19T03:06:23;8.80;99.90
37204;DHT22;23098;48.054;10.636;2023-11-19T03:08:49;8.90;99.90
37204;DHT22;23098;48.054;10.636;2023-11-19T03:11:15;8.90;99.90
37204;DHT22;23098;48.054;10.636;2023-11-19T03:13:40;8.90;99.90
37204;DHT22;23098;48.054;10.636;2023-11-19T03:16:07;8.90;99.90
37204;DHT22;23098;48.054;10.636;2023-11-19T03:18:32;8.90;99.90
37204;DHT22;23098;48.054;10.636;2023-11-19T03:20:58;9.00;99.90
37204;DHT22;23098;48.054;10.636;2023-11-19T03:23:24;9.00;99.90
37204;DHT22;23098;48.054;10.636;2023-11-19T03:25:50;9.00;99.90
37204;DHT22;23098;48.054;10.636;2023-11-19T03:28:16;9.00;99.90
37204;DHT22;23098;48.054;10.636;2023-11-19T03:30:42;9.10;99.90
37204;DHT22;23098;48.054;10.636;2023-11-19T03:33:08;9.10;99.90
37204;DHT22;23098;48.054;10.636;2023-11-19T03:35:33;9.10;99.90
37204;DHT22;23098;48.054;10.636;2023-11-19T03:37:59;9.10;99.90
37204;DHT22;23098;48.054;10.636;2023-11-19T03:40:24;9.10;99.90
37204;DHT22;23098;48.054;10.636;2023-11-19T03:42:50;9.10;99.90
37204;DHT22;23098;48.054;10.636;2023-11-19T03:45:16;9.10;99.90
37204;DHT22;23098;48.054;10.636;2023-11-19T03:47:42;9.10;99.90
37204;DHT22;23098;48.054;10.636;2023-11-19T03:50:07;9.10;99.90
37204;DHT22;23098;48.054;10.636;2023-11-19T03:52:36;9.10;99.90
37204;DHT22;23098;48.054;10.636;2023-11-19T03:55:01;9.00;99.90
37204;DHT22;23098;48.054;10.636;2023-11-19T03:57:30;9.10;99.90
37204;DHT22;23098;48.054;10.636;2023-11-19T03:59:55;9.10;99.90
37204;DHT22;23098;48.054;10.636;2023-11-19T04:02:21;9.00;99.90
37204;DHT22;23098;48.054;10.636;2023-11-19T04:04:46;9.00;99.90
37204;DHT22;23098;48.054;10.636;2023-11-19T04:07:12;9.00;99.90
37204;DHT22;23098;48.054;10.636;2023-11-19T04:09:37;9.10;99.90
37204;DHT22;23098;48.054;10.636;2023-11-19T04:12:03;9.10;99.90
37204;DHT22;23098;48.054;10.636;2023-11-19T04:14:29;9.10;99.90
37204;DHT22;23098;48.054;10.636;2023-11-19T04:16:55;9.10;99.90
37204;DHT22;23098;48.054;10.636;2023-11-19T04:19:20;9.10;99.90
37204;DHT22;23098;48.054;10.636;2023-11-19T04:21:46;9.10;99.90
37204;DHT22;23098;48.054;10.636;2023-11-19T04:24:12;9.20;99.90
37204;DHT22;23098;48.054;10.636;2023-11-19T04:26:41;9.20;99.90
37204;DHT22;23098;48.054;10.636;2023-11-19T04:29:14;9.10;99.90
37204;DHT22;23098;48.054;10.636;2023-11-19T04:31:40;9.20;99.90
37204;DHT22;23098;48.054;10.636;2023-11-19T04:34:13;9.20;99.90
37204;DHT22;23098;48.054;10.636;2023-11-19T04:36:39;9.20;99.90
37204;DHT22;23098;48.054;10.636;2023-11-19T04:39:05;9.10;99.90
37204;DHT22;23098;48.054;10.636;2023-11-19T04:41:35;9.10;99.90
37204;DHT22;23098;48.054;10.636;2023-11-19T04:44:01;9.10;99.90
37204;DHT22;23098;48.054;10.636;2023-11-19T04:46:26;9.00;99.90
37204;DHT22;23098;48.054;10.636;2023-11-19T04:48:52;9.10;99.90
37204;DHT22;23098;48.054;10.636;2023-11-19T04:51:17;9.00;99.90
37204;DHT22;23098;48.054;10.636;2023-11-19T04:53:43;9.00;99.90
37204;DHT22;23098;48.054;10.636;2023-11-19T04:56:09;9.00;99.90
37204;DHT22;23098;48.054;10.636;2023-11-19T04:58:35;9.10;99.90
37204;DHT22;23098;48.054;10.636;2023-11-19T05:01:01;9.00;99.90
37204;DHT22;23098;48.054;10.636;2023-11-19T05:03:27;9.00;99.90
37204;DHT22;23098;48.054;10.636;2023-11-19T05:05:52;9.00;99.90
37204;DHT22;23098;48.054;10.636;2023-11-19T05:08:19;9.00;99.90
37204;DHT22;23098;48.054;10.636;2023-11-19T05:10:44;9.00;99.90
37204;DHT22;23098;48.054;10.636;2023-11-19T05:13:10;9.10;99.90
37204;DHT22;23098;48.054;10.636;2023-11-19T05:15:35;9.10;99.90
37204;DHT22;23098;48.054;10.636;2023-11-19T05:18:01;9.10;99.90
37204;DHT22;23098;48.054;10.636;2023-11-19T05:20:26;9.10;99.90
37204;DHT22;23098;48.054;10.636;2023-11-19T05:22:52;9.20;99.90
37204;DHT22;23098;48.054;10.636;2023-11-19T05:25:18;9.20;99.90
37204;DHT22;23098;48.054;10.636;2023-11-19T05:27:45;9.10;99.90
37204;DHT22;23098;48.054;10.636;2023-11-19T05:30:11;9.20;99.90
37204;DHT22;23098;48.054;10.636;2023-11-19T05:32:37;9.20;99.90
37204;DHT22;23098;48.054;10.636;2023-11-19T05:35:02;9.20;99.90
37204;DHT22;23098;48.054;10.636;2023-11-19T05:37:28;9.20;99.90
37204;DHT22;23098;48.054;10.636;2023-11-19T05:39:54;9.30;99.90
37204;DHT22;23098;48.054;10.636;2023-11-19T05:42:20;9.20;99.90
37204;DHT22;23098;48.054;10.636;2023-11-19T05:44:45;9.30;99.90
37204;DHT22;23098;48.054;10.636;2023-11-19T05:47:11;9.30;99.90
37204;DHT22;23098;48.054;10.636;2023-11-19T05:49:37;9.20;99.90
37204;DHT22;23098;48.054;10.636;2023-11-19T05:52:03;9.20;99.90
37204;DHT22;23098;48.054;10.636;2023-11-19T05:54:29;9.20;99.90
37204;DHT22;23098;48.054;10.636;2023-11-19T05:56:54;9.30;99.90
37204;DHT22;23098;48.054;10.636;2023-11-19T05:59:20;9.30;99.90
37204;DHT22;23098;48.054;10.636;2023-11-19T06:01:48;9.30;99.90
37204;DHT22;23098;48.054;10.636;2023-11-19T06:04:14;9.40;99.90
37204;DHT22;23098;48.054;10.636;2023-11-19T06:06:40;9.40;99.90
37204;DHT22;23098;48.054;10.636;2023-11-19T06:09:05;9.40;99.90
37204;DHT22;23098;48.054;10.636;2023-11-19T06:11:33;9.50;99.90
37204;DHT22;23098;48.054;10.636;2023-11-19T06:13:59;9.50;99.90
37204;DHT22;23098;48.054;10.636;2023-11-19T06:16:24;9.60;99.90
37204;DHT22;23098;48.054;10.636;2023-11-19T06:18:50;9.50;99.90
37204;DHT22;23098;48.054;10.636;2023-11-19T06:21:15;9.50;99.90
37204;DHT22;23098;48.054;10.636;2023-11-19T06:23:41;9.50;99.90
37204;DHT22;23098;48.054;10.636;2023-11-19T06:26:07;9.50;99.90
37204;DHT22;23098;48.054;10.636;2023-11-19T06:28:34;9.60;99.90
37204;DHT22;23098;48.054;10.636;2023-11-19T06:30:59;9.70;99.90
37204;DHT22;23098;48.054;10.636;2023-11-19T06:33:25;9.70;99.90
37204;DHT22;23098;48.054;10.636;2023-11-19T06:35:52;9.70;99.90
37204;DHT22;23098;48.054;10.636;2023-11-19T06:38:18;9.70;99.90
37204;DHT22;23098;48.054;10.636;2023-11-19T06:40:44;9.70;99.90
37204;DHT22;23098;48.054;10.636;2023-11-19T06:43:09;9.80;99.90
37204;DHT22;23098;48.054;10.636;2023-11-19T06:45:35;9.80;99.90
37204;DHT22;23098;48.054;10.636;2023-11-19T06:48:02;9.90;99.90
37204;DHT22;23098;48.054;10.636;2023-11-19T06:50:30;10.00;99.90
37204;DHT22;23098;48.054;10.636;2023-11-19T06:52:55;10.00;99.90
37204;DHT22;23098;48.054;10.636;2023-11-19T06:55:21;10.00;99.90
37204;DHT22;23098;48.054;10.636;2023-11-19T06:57:55;10.00;99.90
37204;DHT22;23098;48.054;10.636;2023-11-19T07:00:21;10.00;99.90
37204;DHT22;23098;48.054;10.636;2023-11-19T07:02:46;10.00;99.90
37204;DHT22;23098;48.054;10.636;2023-11-19T07:05:12;10.00;99.90
37204;DHT22;23098;48.054;10.636;2023-11-19T07:07:40;10.00;99.90
37204;DHT22;23098;48.054;10.636;2023-11-19T07:10:06;10.00;99.90
37204;DHT22;23098;48.054;10.636;2023-11-19T07:12:34;10.00;99.90
37204;DHT22;23098;48.054;10.636;2023-11-19T07:15:01;10.10;99.90
37204;DHT22;23098;48.054;10.636;2023-11-19T07:17:29;10.10;99.90
37204;DHT22;23098;48.054;10.636;2023-11-19T07:19:55;10.10;99.90
37204;DHT22;23098;48.054;10.636;2023-11-19T07:22:20;10.10;99.90
37204;DHT22;23098;48.054;10.636;2023-11-19T07:24:46;10.10;99.90
37204;DHT22;23098;48.054;10.636;2023-11-19T07:27:11;10.10;99.90
37204;DHT22;23098;48.054;10.636;2023-11-19T07:29:38;10.10;99.90
37204;DHT22;23098;48.054;10.636;2023-11-19T07:32:04;10.10;99.90
37204;DHT22;23098;48.054;10.636;2023-11-19T07:34:30;10.20;99.90
37204;DHT22;23098;48.054;10.636;2023-11-19T07:36:56;10.20;99.90
37204;DHT22;23098;48.054;10.636;2023-11-19T07:39:27;10.20;99.90
37204;DHT22;23098;48.054;10.636;2023-11-19T07:41:53;10.20;99.90
37204;DHT22;23098;48.054;10.636;2023-11-19T07:44:20;10.30;99.90
37204;DHT22;23098;48.054;10.636;2023-11-19T07:46:46;10.30;99.90
37204;DHT22;23098;48.054;10.636;2023-11-19T07:49:13;10.40;99.90
37204;DHT22;23098;48.054;10.636;2023-11-19T07:51:39;10.40;99.90
37204;DHT22;23098;48.054;10.636;2023-11-19T07:54:05;10.40;99.90
37204;DHT22;23098;48.054;10.636;2023-11-19T07:56:32;10.40;99.90
37204;DHT22;23098;48.054;10.636;2023-11-19T07:58:59;10.40;99.90
37204;DHT22;23098;48.054;10.636;2023-11-19T08:01:25;10.40;99.90
37204;DHT22;23098;48.054;10.636;2023-11-19T08:03:51;10.40;99.90
37204;DHT22;23098;48.054;10.636;2023-11-19T08:06:16;10.40;99.90
37204;DHT22;23098;48.054;10.636;2023-11-19T08:08:42;10.40;99.90
37204;DHT22;23098;48.054;10.636;2023-11-19T08:11:08;10.50;99.90
37204;DHT22;23098;48.054;10.636;2023-11-19T08:13:35;10.40;99.90
37204;DHT22;23098;48.054;10.636;2023-11-19T08:16:00;10.50;99.90
37204;DHT22;23098;48.054;10.636;2023-11-19T08:18:26;10.50;99.90
37204;DHT22;23098;48.054;10.636;2023-11-19T08:20:51;10.50;99.90
37204;DHT22;23098;48.054;10.636;2023-11-19T08:23:19;10.50;99.90
37204;DHT22;23098;48.054;10.636;2023-11-19T08:25:45;10.50;99.90
37204;DHT22;23098;48.054;10.636;2023-11-19T08:28:10;10.60;99.90
37204;DHT22;23098;48.054;10.636;2023-11-19T08:30:36;10.60;99.90
37204;DHT22;23098;48.054;10.636;2023-11-19T08:33:01;10.60;99.90
37204;DHT22;23098;48.054;10.636;2023-11-19T08:35:31;10.60;99.90
37204;DHT22;23098;48.054;10.636;2023-11-19T08:37:57;10.60;99.90
37204;DHT22;23098;48.054;10.636;2023-11-19T08:40:22;10.60;99.90
37204;DHT22;23098;48.054;10.636;2023-11-19T08:42:48;10.70;99.90
37204;DHT22;23098;48.054;10.636;2023-11-19T08:45:15;10.70;99.90
37204;DHT22;23098;48.054;10.636;2023-11-19T08:47:41;10.70;99.90
37204;DHT22;23098;48.054;10.636;2023-11-19T08:50:06;10.80;99.90
37204;DHT22;23098;48.054;10.636;2023-11-19T08:52:33;10.80;99.90
37204;DHT22;23098;48.054;10.636;2023-11-19T08:54:59;10.70;99.90
37204;DHT22;23098;48.054;10.636;2023-11-19T08:57:25;10.80;99.90
37204;DHT22;23098;48.054;10.636;2023-11-19T08:59:52;10.80;99.90
37204;DHT22;23098;48.054;10.636;2023-11-19T09:02:17;10.90;99.90
37204;DHT22;23098;48.054;10.636;2023-11-19T09:04:43;10.90;99.90
37204;DHT22;23098;48.054;10.636;2023-11-19T09:07:09;10.90;99.90
37204;DHT22;23098;48.054;10.636;2023-11-19T09:09:35;10.90;99.90
37204;DHT22;23098;48.054;10.636;2023-11-19T09:12:02;11.00;99.90
37204;DHT22;23098;48.054;10.636;2023-11-19T09:14:29;10.90;99.90
37204;DHT22;23098;48.054;10.636;2023-11-19T09:16:55;10.90;99.90
37204;DHT22;23098;48.054;10.636;2023-11-19T09:19:28;10.90;99.90
37204;DHT22;23098;48.054;10.636;2023-11-19T09:21:53;10.90;99.90
37204;DHT22;23098;48.054;10.636;2023-11-19T09:24:34;10.90;99.90
37204;DHT22;23098;48.054;10.636;2023-11-19T09:27:00;11.00;99.90
37204;DHT22;23098;48.054;10.636;2023-11-19T09:29:25;11.00;99.90
37204;DHT22;23098;48.054;10.636;2023-11-19T09:31:51;11.00;99.90
37204;DHT22;23098;48.054;10.636;2023-11-19T09:34:17;11.10;99.90
37204;DHT22;23098;48.054;10.636;2023-11-19T09:36:42;11.10;99.90
37204;DHT22;23098;48.054;10.636;2023-11-19T09:39:28;11.20;99.90
37204;DHT22;23098;48.054;10.636;2023-11-19T09:41:53;11.30;99.90
37204;DHT22;23098;48.054;10.636;2023-11-19T09:44:19;11.30;99.90
37204;DHT22;23098;48.054;10.636;2023-11-19T09:46:45;11.30;99.90
37204;DHT22;23098;48.054;10.636;2023-11-19T09:49:11;11.40;99.90
37204;DHT22;23098;48.054;10.636;2023-11-19T09:51:38;11.50;99.90
37204;DHT22;23098;48.054;10.636;2023-11-19T09:54:04;11.50;99.90
37204;DHT22;23098;48.054;10.636;2023-11-19T09:56:29;11.60;99.90
37204;DHT22;23098;48.054;10.636;2023-11-19T09:58:56;11.50;99.90
37204;DHT22;23098;48.054;10.636;2023-11-19T10:01:21;11.40;99.90
37204;DHT22;23098;48.054;10.636;2023-11-19T10:03:47;11.40;99.90
37204;DHT22;23098;48.054;10.636;2023-11-19T10:06:15;11.50;99.90
37204;DHT22;23098;48.054;10.636;2023-11-19T10:08:41;11.40;99.90
37204;DHT22;23098;48.054;10.636;2023-11-19T10:11:08;11.40;99.90
37204;DHT22;23098;48.054;10.636;2023-11-19T10:13:36;11.50;99.90
37204;DHT22;23098;48.054;10.636;2023-11-19T10:16:14;11.50;99.90
37204;DHT22;23098;48.054;10.636;2023-11-19T10:18:49;11.60;99.90
37204;DHT22;23098;48.054;10.636;2023-11-19T10:21:18;11.60;99.90
37204;DHT22;23098;48.054;10.636;2023-11-19T10:23:51;11.70;99.90
37204;DHT22;23098;48.054;10.636;2023-11-19T10:26:18;11.70;99.90
37204;DHT22;23098;48.054;10.636;2023-11-19T10:28:46;11.70;99.90
37204;DHT22;23098;48.054;10.636;2023-11-19T10:31:16;11.70;99.90
37204;DHT22;23098;48.054;10.636;2023-11-19T10:33:42;11.70;99.90
37204;DHT22;23098;48.054;10.636;2023-11-19T10:36:13;11.80;99.90
37204;DHT22;23098;48.054;10.636;2023-11-19T10:38:40;11.70;99.90
37204;DHT22;23098;48.054;10.636;2023-11-19T10:41:06;11.80;99.90
37204;DHT22;23098;48.054;10.636;2023-11-19T10:43:43;11.90;99.90
37204;DHT22;23098;48.054;10.636;2023-11-19T10:46:14;12.00;99.90
37204;DHT22;23098;48.054;10.636;2023-11-19T10:48:40;12.00;99.90
37204;DHT22;23098;48.054;10.636;2023-11-19T10:51:06;12.20;99.90
37204;DHT22;23098;48.054;10.636;2023-11-19T10:53:36;12.40;99.90
37204;DHT22;23098;48.054;10.636;2023-11-19T10:56:09;12.50;99.90
37204;DHT22;23098;48.054;10.636;2023-11-19T10:58:36;12.80;99.90
37204;DHT22;23098;48.054;10.636;2023-11-19T11:01:11;12.80;99.90
37204;DHT22;23098;48.054;10.636;2023-11-19T11:03:42;13.00;99.90
37204;DHT22;23098;48.054;10.636;2023-11-19T11:06:09;13.10;99.90
37204;DHT22;23098;48.054;10.636;2023-11-19T11:08:37;13.20;99.90
37204;DHT22;23098;48.054;10.636;2023-11-19T11:11:03;13.30;99.90
37204;DHT22;23098;48.054;10.636;2023-11-19T11:13:31;13.20;99.90
37204;DHT22;23098;48.054;10.636;2023-11-19T11:15:57;13.30;99.90
37204;DHT22;23098;48.054;10.636;2023-11-19T11:18:24;13.30;99.90
37204;DHT22;23098;48.054;10.636;2023-11-19T11:21:04;13.40;99.90
37204;DHT22;23098;48.054;10.636;2023-11-19T11:26:50;13.70;99.90
37204;DHT22;23098;48.054;10.636;2023-11-19T11:29:46;13.70;99.90
37204;DHT22;23098;48.054;10.636;2023-11-19T11:35:33;13.30;99.90
37204;DHT22;23098;48.054;10.636;2023-11-19T11:38:09;13.10;99.90
37204;DHT22;23098;48.054;10.636;2023-11-19T11:40:35;13.00;99.90
37204;DHT22;23098;48.054;10.636;2023-11-19T11:43:02;12.80;99.90
37204;DHT22;23098;48.054;10.636;2023-11-19T11:45:40;12.90;99.90
37204;DHT22;23098;48.054;10.636;2023-11-19T11:48:14;13.20;99.90
37204;DHT22;23098;48.054;10.636;2023-11-19T11:50:52;13.40;99.90
37204;DHT22;23098;48.054;10.636;2023-11-19T11:53:19;13.30;99.90
37204;DHT22;23098;48.054;10.636;2023-11-19T11:58:17;13.40;99.90
37204;DHT22;23098;48.054;10.636;2023-11-19T12:00:42;13.40;99.90
37204;DHT22;23098;48.054;10.636;2023-11-19T12:03:09;13.40;99.90
37204;DHT22;23098;48.054;10.636;2023-11-19T12:05:44;13.40;99.90
37204;DHT22;23098;48.054;10.636;2023-11-19T12:08:14;13.20;99.90
37204;DHT22;23098;48.054;10.636;2023-11-19T12:10:51;13.20;99.90
37204;DHT22;23098;48.054;10.636;2023-11-19T12:13:18;13.20;99.90
37204;DHT22;23098;48.054;10.636;2023-11-19T12:18:30;12.90;99.90
37204;DHT22;23098;48.054;10.636;2023-11-19T12:21:00;13.00;99.90
37204;DHT22;23098;48.054;10.636;2023-11-19T12:23:29;13.10;99.90
37204;DHT22;23098;48.054;10.636;2023-11-19T12:26:21;13.10;99.90
37204;DHT22;23098;48.054;10.636;2023-11-19T12:28:59;13.10;99.90
37204;DHT22;23098;48.054;10.636;2023-11-19T12:31:25;13.30;99.90
37204;DHT22;23098;48.054;10.636;2023-11-19T12:33:51;13.60;99.90
37204;DHT22;23098;48.054;10.636;2023-11-19T12:36:18;13.70;99.90
37204;DHT22;23098;48.054;10.636;2023-11-19T12:38:45;13.60;99.90
37204;DHT22;23098;48.054;10.636;2023-11-19T12:41:11;13.40;99.90
37204;DHT22;23098;48.054;10.636;2023-11-19T12:43:38;13.50;99.90
37204;DHT22;23098;48.054;10.636;2023-11-19T12:46:20;13.50;99.90
37204;DHT22;23098;48.054;10.636;2023-11-19T12:48:50;13.40;99.90
37204;DHT22;23098;48.054;10.636;2023-11-19T12:51:16;13.40;99.90
37204;DHT22;23098;48.054;10.636;2023-11-19T12:53:52;13.70;99.90
37204;DHT22;23098;48.054;10.636;2023-11-19T12:56:23;13.90;99.90
37204;DHT22;23098;48.054;10.636;2023-11-19T12:58:49;13.60;99.90
37204;DHT22;23098;48.054;10.636;2023-11-19T13:01:17;13.30;99.90
37204;DHT22;23098;48.054;10.636;2023-11-19T13:03:43;13.30;99.90
37204;DHT22;23098;48.054;10.636;2023-11-19T13:06:13;13.50;99.90
37204;DHT22;23098;48.054;10.636;2023-11-19T13:08:43;13.50;99.90
37204;DHT22;23098;48.054;10.636;2023-11-19T13:11:12;13.50;99.90
37204;DHT22;23098;48.054;10.636;2023-11-19T13:13:57;13.20;99.90
37204;DHT22;23098;48.054;10.636;2023-11-19T13:16:24;13.30;99.90
37204;DHT22;23098;48.054;10.636;2023-11-19T13:18:50;13.20;99.90
37204;DHT22;23098;48.054;10.636;2023-11-19T13:21:15;13.00;99.90
37204;DHT22;23098;48.054;10.636;2023-11-19T13:23:41;13.10;99.90
37204;DHT22;23098;48.054;10.636;2023-11-19T13:26:07;13.30;99.90
37204;DHT22;23098;48.054;10.636;2023-11-19T13:28:33;13.30;99.90
37204;DHT22;23098;48.054;10.636;2023-11-19T13:30:59;13.60;99.90
37204;DHT22;23098;48.054;10.636;2023-11-19T13:33:24;13.60;99.90
37204;DHT22;23098;48.054;10.636;2023-11-19T13:35:50;13.40;99.90
37204;DHT22;23098;48.054;10.636;2023-11-19T13:38:15;13.50;99.90
37204;DHT22;23098;48.054;10.636;2023-11-19T13:40:41;13.50;99.90
37204;DHT22;23098;48.054;10.636;2023-11-19T13:43:06;13.50;99.90
37204;DHT22;23098;48.054;10.636;2023-11-19T13:45:32;13.40;99.90
37204;DHT22;23098;48.054;10.636;2023-11-19T13:47:58;13.40;99.90
37204;DHT22;23098;48.054;10.636;2023-11-19T13:50:23;13.30;99.90
37204;DHT22;23098;48.054;10.636;2023-11-19T13:52:49;13.40;99.90
37204;DHT22;23098;48.054;10.636;2023-11-19T13:55:15;13.30;99.90
37204;DHT22;23098;48.054;10.636;2023-11-19T13:57:41;13.30;99.90
37204;DHT22;23098;48.054;10.636;2023-11-19T14:00:09;13.30;99.90
37204;DHT22;23098;48.054;10.636;2023-11-19T14:02:42;13.30;99.90
37204;DHT22;23098;48.054;10.636;2023-11-19T14:05:21;13.30;99.90
37204;DHT22;23098;48.054;10.636;2023-11-19T14:07:48;13.20;99.90
37204;DHT22;23098;48.054;10.636;2023-11-19T14:10:14;13.20;99.90
37204;DHT22;23098;48.054;10.636;2023-11-19T14:12:41;13.10;99.90
37204;DHT22;23098;48.054;10.636;2023-11-19T14:15:08;13.10;99.90
37204;DHT22;23098;48.054;10.636;2023-11-19T14:17:42;13.00;99.90
37204;DHT22;23098;48.054;10.636;2023-11-19T14:20:09;12.80;99.90
37204;DHT22;23098;48.054;10.636;2023-11-19T14:22:45;12.70;99.90
37204;DHT22;23098;48.054;10.636;2023-11-19T14:25:14;12.60;99.90
37204;DHT22;23098;48.054;10.636;2023-11-19T14:27:42;12.60;99.90
37204;DHT22;23098;48.054;10.636;2023-11-19T14:30:10;12.60;99.90
37204;DHT22;23098;48.054;10.636;2023-11-19T14:32:42;12.60;99.90
37204;DHT22;23098;48.054;10.636;2023-11-19T14:35:09;12.60;99.90
37204;DHT22;23098;48.054;10.636;2023-11-19T14:37:35;12.60;99.90
37204;DHT22;23098;48.054;10.636;2023-11-19T14:40:01;12.60;99.90
37204;DHT22;23098;48.054;10.636;2023-11-19T14:42:29;12.60;99.90
37204;DHT22;23098;48.054;10.636;2023-11-19T14:44:55;12.50;99.90
37204;DHT22;23098;48.054;10.636;2023-11-19T14:47:24;12.50;99.90
37204;DHT22;23098;48.054;10.636;2023-11-19T14:49:50;12.40;99.90
37204;DHT22;23098;48.054;10.636;2023-11-19T14:52:15;12.40;99.90
37204;DHT22;23098;48.054;10.636;2023-11-19T14:54:41;12.30;99.90
37204;DHT22;23098;48.054;10.636;2023-11-19T14:57:07;12.30;99.90
37204;DHT22;23098;48.054;10.636;2023-11-19T14:59:36;12.20;99.90
37204;DHT22;23098;48.054;10.636;2023-11-19T15:02:02;12.20;99.90
37204;DHT22;23098;48.054;10.636;2023-11-19T15:04:28;12.10;99.90
37204;DHT22;23098;48.054;10.636;2023-11-19T15:06:57;12.20;99.90
37204;DHT22;23098;48.054;10.636;2023-11-19T15:09:23;12.20;99.90
37204;DHT22;23098;48.054;10.636;2023-11-19T15:11:48;12.10;99.90
37204;DHT22;23098;48.054;10.636;2023-11-19T15:14:14;12.10;99.90
37204;DHT22;23098;48.054;10.636;2023-11-19T15:16:45;12.10;99.90
37204;DHT22;23098;48.054;10.636;2023-11-19T15:19:11;12.00;99.90
37204;DHT22;23098;48.054;10.636;2023-11-19T15:21:41;12.00;99.90
37204;DHT22;23098;48.054;10.636;2023-11-19T15:24:07;12.00;99.90
37204;DHT22;23098;48.054;10.636;2023-11-19T15:26:34;11.90;99.90
37204;DHT22;23098;48.054;10.636;2023-11-19T15:29:00;11.90;99.90
37204;DHT22;23098;48.054;10.636;2023-11-19T15:31:26;11.90;99.90
37204;DHT22;23098;48.054;10.636;2023-11-19T15:33:51;12.00;99.90